INFORMACIÓN METAR y TAF
METAR FOR LEXJ
ADDS - METARS form results

(1117 UTC 10 August 2020)
Data provider http://aviationweather.gov/metar/data/
 
METAR text: LEXJ 101100Z 35003KT 280V040 9999 BKN031 24/19 Q1013
Conditions at: LEXJ (SANTANDER/PARAYA, ES) observed 1100 UTC 10 August 2020
Temperature: 24.0°C (75°F)
Dewpoint: 19.0°C (66°F) [RH = 74%]
Pressure (altimeter): 29.91 inches Hg (1013.0 mb)
Winds: from the N (350 degrees) at 3 MPH (3 knots; 1.5 m/s)
Visibility: 6 or more miles (10+ km)
Ceiling: 3100 feet AGL
Clouds: broken clouds at 3100 feet AGL
Weather: no significant weather observed at this time

METAR text: LEXJ 101030Z 27003KT 190V350 9999 BKN031 23/19 Q1013
Conditions at: LEXJ (SANTANDER/PARAYA, ES) observed 1030 UTC 10 August 2020
Temperature: 23.0°C (73°F)
Dewpoint: 19.0°C (66°F) [RH = 78%]
Pressure (altimeter): 29.91 inches Hg (1013.0 mb)
Winds: from the W (270 degrees) at 3 MPH (3 knots; 1.5 m/s)
Visibility: 6 or more miles (10+ km)
Ceiling: 3100 feet AGL
Clouds: broken clouds at 3100 feet AGL
Weather: no significant weather observed at this time

Forecast for: LEXJ (SANTANDER/PARAYA, ES)
Text: TAF LEXJ 100800Z 1009/1109 25005KT 9999 BKN025 TX25/1014Z TN18/1106Z
Forecast period: 0900 UTC 10 August 2020 to 0900 UTC 11 August 2020
Forecast type: FROM: standard forecast or significant change
Winds: from the WSW (250 degrees) at 6 MPH (5 knots; 2.6 m/s)
Visibility: 6 or more miles (10+ km)
Ceiling: 2500 feet AGL
Clouds: broken clouds at 2500 feet AGL
Weather: no significant weather forecast for this period
Text: TEMPO 1009/1020 34010KT
Forecast period: 0900 to 2000 UTC 10 August 2020
Forecast type: TEMPORARY: The following changes expected for less than half the time period
Winds: from the NNW (340 degrees) at 12 MPH (10 knots; 5.1 m/s)
Visibility: missing
Ceiling: unknown
Clouds: missing
Weather: no significant weather forecast for this period
Text: PROB30
Forecast period: 2000 UTC 10 August 2020 to 0800 UTC 11 August 2020
Forecast type: TEMPORARY: The following changes expected for less than half the time period
Visibility: 1.86 miles (2.99 km)
Ceiling: 1000 feet AGL
Clouds: broken clouds at 1000 feet AGL
Weather: -RA -DZ BR  (light rain, light drizzle, mist)

MAPA DE AEROPUERTO

INFORMACIÓN DE PISTA
Pista 11 Longitud 7612 ft Ancho 148 ft
Elevación 11 ft Umbral desplazado 0 ft Rumbo de pista 110
Pista 29 Longitud 7612 ft Ancho 148 ft
Elevación 12 ft Umbral desplazado 0 ft Rumbo de pista 290

FRECUANCIAS DEL AEROPUERTO
Tipo APP Nombre APP Frecuencia 118.375 MHZ
Tipo GND Nombre GND Frecuencia 121.7 MHZ
Tipo TWR Nombre TWR Frecuencia 118.1 MHZ

RADIO AYUDAS DEL AEROPUERTO
Tipo NDB Nombre Santander Frecuencia 416 KHZ
Tipo VOR-DME Nombre Santander Frecuencia 115300 KHZ